sensor_id;sensor_type;location;lat;lon;timestamp;P1;durP1;ratioP1;P2;durP2;ratioP2
21235;SDS011;10775;42.678;26.324;2023-02-27T00:00:31;6.50;;;2.80;;
21235;SDS011;10775;42.678;26.324;2023-02-27T00:02:57;8.82;;;3.10;;
21235;SDS011;10775;42.678;26.324;2023-02-27T00:05:23;7.43;;;2.58;;
21235;SDS011;10775;42.678;26.324;2023-02-27T00:07:49;5.60;;;2.20;;
21235;SDS011;10775;42.678;26.324;2023-02-27T00:10:15;7.18;;;2.67;;
21235;SDS011;10775;42.678;26.324;2023-02-27T00:12:40;8.00;;;2.60;;
21235;SDS011;10775;42.678;26.324;2023-02-27T00:15:08;4.45;;;2.35;;
21235;SDS011;10775;42.678;26.324;2023-02-27T00:17:35;4.00;;;2.30;;
21235;SDS011;10775;42.678;26.324;2023-02-27T00:20:00;5.90;;;2.42;;
21235;SDS011;10775;42.678;26.324;2023-02-27T00:22:26;6.15;;;2.67;;
21235;SDS011;10775;42.678;26.324;2023-02-27T00:24:51;5.88;;;2.10;;
21235;SDS011;10775;42.678;26.324;2023-02-27T00:27:17;6.20;;;2.30;;
21235;SDS011;10775;42.678;26.324;2023-02-27T00:29:43;7.80;;;2.60;;
21235;SDS011;10775;42.678;26.324;2023-02-27T00:32:08;6.15;;;2.42;;
21235;SDS011;10775;42.678;26.324;2023-02-27T00:34:33;4.93;;;2.20;;
21235;SDS011;10775;42.678;26.324;2023-02-27T00:36:59;9.70;;;3.50;;
21235;SDS011;10775;42.678;26.324;2023-02-27T00:39:24;11.27;;;3.15;;
21235;SDS011;10775;42.678;26.324;2023-02-27T00:41:50;4.18;;;2.58;;
21235;SDS011;10775;42.678;26.324;2023-02-27T00:44:15;5.28;;;2.13;;
21235;SDS011;10775;42.678;26.324;2023-02-27T00:46:41;5.78;;;2.47;;
21235;SDS011;10775;42.678;26.324;2023-02-27T00:49:06;7.45;;;2.78;;
21235;SDS011;10775;42.678;26.324;2023-02-27T00:51:32;8.38;;;2.90;;
21235;SDS011;10775;42.678;26.324;2023-02-27T00:53:57;5.68;;;2.45;;
21235;SDS011;10775;42.678;26.324;2023-02-27T00:56:23;5.72;;;2.72;;
21235;SDS011;10775;42.678;26.324;2023-02-27T00:58:48;8.70;;;2.65;;
21235;SDS011;10775;42.678;26.324;2023-02-27T01:01:14;7.10;;;2.90;;
21235;SDS011;10775;42.678;26.324;2023-02-27T01:03:39;10.48;;;4.03;;
21235;SDS011;10775;42.678;26.324;2023-02-27T01:06:05;9.60;;;3.90;;
21235;SDS011;10775;42.678;26.324;2023-02-27T01:08:32;9.98;;;3.10;;
21235;SDS011;10775;42.678;26.324;2023-02-27T01:10:58;5.65;;;2.95;;
21235;SDS011;10775;42.678;26.324;2023-02-27T01:13:24;8.88;;;3.00;;
21235;SDS011;10775;42.678;26.324;2023-02-27T01:15:50;7.80;;;2.88;;
21235;SDS011;10775;42.678;26.324;2023-02-27T01:18:15;6.32;;;2.38;;
21235;SDS011;10775;42.678;26.324;2023-02-27T01:20:41;5.43;;;2.15;;
21235;SDS011;10775;42.678;26.324;2023-02-27T01:23:06;6.20;;;2.63;;
21235;SDS011;10775;42.678;26.324;2023-02-27T01:25:32;8.25;;;2.33;;
21235;SDS011;10775;42.678;26.324;2023-02-27T01:27:57;5.38;;;2.45;;
21235;SDS011;10775;42.678;26.324;2023-02-27T01:30:23;5.43;;;2.28;;
21235;SDS011;10775;42.678;26.324;2023-02-27T01:32:48;4.60;;;2.40;;
21235;SDS011;10775;42.678;26.324;2023-02-27T01:35:13;8.70;;;2.53;;
21235;SDS011;10775;42.678;26.324;2023-02-27T01:37:39;6.00;;;2.30;;
21235;SDS011;10775;42.678;26.324;2023-02-27T01:40:05;7.72;;;2.28;;
21235;SDS011;10775;42.678;26.324;2023-02-27T01:42:31;8.32;;;2.35;;
21235;SDS011;10775;42.678;26.324;2023-02-27T01:47:35;8.13;;;2.45;;
21235;SDS011;10775;42.678;26.324;2023-02-27T01:50:06;5.57;;;2.10;;
21235;SDS011;10775;42.678;26.324;2023-02-27T01:52:33;8.52;;;2.40;;
21235;SDS011;10775;42.678;26.324;2023-02-27T01:55:01;5.20;;;2.03;;
21235;SDS011;10775;42.678;26.324;2023-02-27T01:57:27;6.07;;;2.03;;
21235;SDS011;10775;42.678;26.324;2023-02-27T01:59:53;5.93;;;2.40;;
21235;SDS011;10775;42.678;26.324;2023-02-27T02:02:20;2.88;;;1.92;;
21235;SDS011;10775;42.678;26.324;2023-02-27T02:04:51;6.60;;;1.98;;
21235;SDS011;10775;42.678;26.324;2023-02-27T02:07:18;5.57;;;2.50;;
21235;SDS011;10775;42.678;26.324;2023-02-27T02:09:47;6.57;;;2.22;;
21235;SDS011;10775;42.678;26.324;2023-02-27T02:12:15;4.80;;;1.80;;
21235;SDS011;10775;42.678;26.324;2023-02-27T02:14:44;4.60;;;1.80;;
21235;SDS011;10775;42.678;26.324;2023-02-27T02:27:54;6.85;;;1.92;;
21235;SDS011;10775;42.678;26.324;2023-02-27T02:41:59;6.88;;;2.25;;
21235;SDS011;10775;42.678;26.324;2023-02-27T02:45:32;12.98;;;3.42;;
21235;SDS011;10775;42.678;26.324;2023-02-27T02:53:41;9.70;;;3.20;;
21235;SDS011;10775;42.678;26.324;2023-02-27T02:55:59;5.65;;;2.42;;
21235;SDS011;10775;42.678;26.324;2023-02-27T02:58:42;8.55;;;3.28;;
21235;SDS011;10775;42.678;26.324;2023-02-27T03:01:25;8.20;;;2.92;;
21235;SDS011;10775;42.678;26.324;2023-02-27T03:06:56;6.47;;;2.60;;
21235;SDS011;10775;42.678;26.324;2023-02-27T03:09:30;7.72;;;2.85;;
21235;SDS011;10775;42.678;26.324;2023-02-27T03:12:00;5.88;;;1.65;;
21235;SDS011;10775;42.678;26.324;2023-02-27T03:14:34;6.10;;;1.88;;
21235;SDS011;10775;42.678;26.324;2023-02-27T03:17:05;9.30;;;3.30;;
21235;SDS011;10775;42.678;26.324;2023-02-27T03:19:42;7.35;;;2.25;;
21235;SDS011;10775;42.678;26.324;2023-02-27T03:22:14;7.95;;;2.60;;
21235;SDS011;10775;42.678;26.324;2023-02-27T03:24:44;13.77;;;3.28;;
21235;SDS011;10775;42.678;26.324;2023-02-27T03:27:13;3.78;;;1.88;;
21235;SDS011;10775;42.678;26.324;2023-02-27T03:29:46;5.70;;;2.15;;
21235;SDS011;10775;42.678;26.324;2023-02-27T03:35:07;5.65;;;2.22;;
21235;SDS011;10775;42.678;26.324;2023-02-27T03:43:45;11.45;;;3.13;;
21235;SDS011;10775;42.678;26.324;2023-02-27T03:46:20;5.05;;;2.05;;
21235;SDS011;10775;42.678;26.324;2023-02-27T03:48:48;7.18;;;2.13;;
21235;SDS011;10775;42.678;26.324;2023-02-27T03:51:15;4.85;;;1.55;;
21235;SDS011;10775;42.678;26.324;2023-02-27T03:54:29;4.63;;;2.15;;
21235;SDS011;10775;42.678;26.324;2023-02-27T03:59:24;5.43;;;2.25;;
21235;SDS011;10775;42.678;26.324;2023-02-27T04:01:51;4.50;;;1.73;;
21235;SDS011;10775;42.678;26.324;2023-02-27T04:04:17;3.25;;;1.63;;
21235;SDS011;10775;42.678;26.324;2023-02-27T04:06:56;6.18;;;2.08;;
21235;SDS011;10775;42.678;26.324;2023-02-27T04:20:43;2.72;;;1.50;;
21235;SDS011;10775;42.678;26.324;2023-02-27T04:29:19;6.38;;;1.77;;
21235;SDS011;10775;42.678;26.324;2023-02-27T04:31:46;4.90;;;2.15;;
21235;SDS011;10775;42.678;26.324;2023-02-27T04:34:23;4.68;;;1.73;;
21235;SDS011;10775;42.678;26.324;2023-02-27T04:40:00;6.03;;;1.95;;
21235;SDS011;10775;42.678;26.324;2023-02-27T04:42:31;4.35;;;2.08;;
21235;SDS011;10775;42.678;26.324;2023-02-27T04:45:00;9.52;;;1.98;;
21235;SDS011;10775;42.678;26.324;2023-02-27T04:50:43;5.47;;;1.90;;
21235;SDS011;10775;42.678;26.324;2023-02-27T04:52:59;2.90;;;1.70;;
21235;SDS011;10775;42.678;26.324;2023-02-27T04:55:32;5.03;;;2.03;;
21235;SDS011;10775;42.678;26.324;2023-02-27T05:00:55;10.40;;;2.50;;
21235;SDS011;10775;42.678;26.324;2023-02-27T05:03:26;9.27;;;3.13;;
21235;SDS011;10775;42.678;26.324;2023-02-27T05:05:57;9.70;;;3.42;;
21235;SDS011;10775;42.678;26.324;2023-02-27T05:11:25;12.45;;;4.25;;
21235;SDS011;10775;42.678;26.324;2023-02-27T05:14:19;15.43;;;5.68;;
21235;SDS011;10775;42.678;26.324;2023-02-27T05:17:25;5.13;;;2.78;;
21235;SDS011;10775;42.678;26.324;2023-02-27T05:19:39;6.30;;;2.53;;
21235;SDS011;10775;42.678;26.324;2023-02-27T05:22:12;6.28;;;2.70;;
21235;SDS011;10775;42.678;26.324;2023-02-27T05:33:37;4.97;;;2.35;;
21235;SDS011;10775;42.678;26.324;2023-02-27T05:38:41;8.45;;;2.63;;
21235;SDS011;10775;42.678;26.324;2023-02-27T05:46:25;8.68;;;2.72;;
21235;SDS011;10775;42.678;26.324;2023-02-27T05:48:58;5.68;;;2.60;;
21235;SDS011;10775;42.678;26.324;2023-02-27T05:51:29;7.18;;;3.13;;
21235;SDS011;10775;42.678;26.324;2023-02-27T05:54:02;5.85;;;2.50;;
21235;SDS011;10775;42.678;26.324;2023-02-27T05:56:34;10.40;;;3.28;;
21235;SDS011;10775;42.678;26.324;2023-02-27T06:01:58;10.07;;;3.50;;
21235;SDS011;10775;42.678;26.324;2023-02-27T06:04:23;6.80;;;2.88;;
21235;SDS011;10775;42.678;26.324;2023-02-27T06:06:49;10.65;;;3.22;;
21235;SDS011;10775;42.678;26.324;2023-02-27T06:09:15;9.18;;;3.63;;
21235;SDS011;10775;42.678;26.324;2023-02-27T06:11:41;8.35;;;3.50;;
21235;SDS011;10775;42.678;26.324;2023-02-27T06:14:06;7.35;;;3.35;;
21235;SDS011;10775;42.678;26.324;2023-02-27T06:16:32;6.70;;;3.67;;
21235;SDS011;10775;42.678;26.324;2023-02-27T06:19:02;11.65;;;5.38;;
21235;SDS011;10775;42.678;26.324;2023-02-27T06:21:28;15.00;;;7.22;;
21235;SDS011;10775;42.678;26.324;2023-02-27T06:23:54;12.30;;;5.22;;
21235;SDS011;10775;42.678;26.324;2023-02-27T06:26:19;11.02;;;5.35;;
21235;SDS011;10775;42.678;26.324;2023-02-27T06:28:45;11.45;;;5.55;;
21235;SDS011;10775;42.678;26.324;2023-02-27T06:31:10;14.20;;;6.50;;
21235;SDS011;10775;42.678;26.324;2023-02-27T06:33:36;20.67;;;9.52;;
21235;SDS011;10775;42.678;26.324;2023-02-27T06:36:01;11.32;;;5.78;;
21235;SDS011;10775;42.678;26.324;2023-02-27T06:38:27;11.77;;;6.80;;
21235;SDS011;10775;42.678;26.324;2023-02-27T06:40:53;10.15;;;5.57;;
21235;SDS011;10775;42.678;26.324;2023-02-27T06:43:19;11.80;;;6.18;;
21235;SDS011;10775;42.678;26.324;2023-02-27T06:45:47;10.02;;;5.72;;
21235;SDS011;10775;42.678;26.324;2023-02-27T06:48:13;10.55;;;6.07;;
21235;SDS011;10775;42.678;26.324;2023-02-27T06:50:39;26.42;;;14.45;;
21235;SDS011;10775;42.678;26.324;2023-02-27T06:53:05;27.58;;;14.73;;
21235;SDS011;10775;42.678;26.324;2023-02-27T06:55:31;24.42;;;13.32;;
21235;SDS011;10775;42.678;26.324;2023-02-27T06:57:56;50.28;;;29.83;;
21235;SDS011;10775;42.678;26.324;2023-02-27T07:00:22;49.35;;;28.38;;
21235;SDS011;10775;42.678;26.324;2023-02-27T07:02:48;40.95;;;18.10;;
21235;SDS011;10775;42.678;26.324;2023-02-27T07:05:13;17.27;;;8.55;;
21235;SDS011;10775;42.678;26.324;2023-02-27T07:07:39;19.67;;;9.75;;
21235;SDS011;10775;42.678;26.324;2023-02-27T07:10:05;17.60;;;8.95;;
21235;SDS011;10775;42.678;26.324;2023-02-27T07:12:36;18.85;;;8.80;;
21235;SDS011;10775;42.678;26.324;2023-02-27T07:15:02;19.80;;;8.13;;
21235;SDS011;10775;42.678;26.324;2023-02-27T07:17:28;21.23;;;9.82;;
21235;SDS011;10775;42.678;26.324;2023-02-27T07:19:53;16.67;;;6.85;;
21235;SDS011;10775;42.678;26.324;2023-02-27T07:22:19;18.45;;;7.78;;
21235;SDS011;10775;42.678;26.324;2023-02-27T07:24:44;17.00;;;6.55;;
21235;SDS011;10775;42.678;26.324;2023-02-27T07:27:10;29.33;;;10.85;;
21235;SDS011;10775;42.678;26.324;2023-02-27T07:29:35;12.32;;;4.50;;
21235;SDS011;10775;42.678;26.324;2023-02-27T07:32:01;13.80;;;4.72;;
21235;SDS011;10775;42.678;26.324;2023-02-27T07:34:26;16.75;;;5.57;;
21235;SDS011;10775;42.678;26.324;2023-02-27T07:36:52;11.23;;;4.05;;
21235;SDS011;10775;42.678;26.324;2023-02-27T07:39:17;28.17;;;8.85;;
21235;SDS011;10775;42.678;26.324;2023-02-27T07:41:43;14.75;;;4.20;;
21235;SDS011;10775;42.678;26.324;2023-02-27T07:44:09;19.00;;;5.55;;
21235;SDS011;10775;42.678;26.324;2023-02-27T07:46:35;18.17;;;4.82;;
21235;SDS011;10775;42.678;26.324;2023-02-27T07:49:00;24.35;;;6.53;;
21235;SDS011;10775;42.678;26.324;2023-02-27T07:51:26;20.25;;;5.25;;
21235;SDS011;10775;42.678;26.324;2023-02-27T07:53:52;21.20;;;4.90;;
21235;SDS011;10775;42.678;26.324;2023-02-27T07:56:17;16.60;;;4.53;;
21235;SDS011;10775;42.678;26.324;2023-02-27T07:58:42;16.27;;;4.22;;
21235;SDS011;10775;42.678;26.324;2023-02-27T08:01:08;15.70;;;4.82;;
21235;SDS011;10775;42.678;26.324;2023-02-27T08:03:33;19.08;;;4.30;;
21235;SDS011;10775;42.678;26.324;2023-02-27T08:05:59;18.33;;;5.03;;
21235;SDS011;10775;42.678;26.324;2023-02-27T08:08:24;12.88;;;3.60;;
21235;SDS011;10775;42.678;26.324;2023-02-27T08:10:50;16.38;;;5.00;;
21235;SDS011;10775;42.678;26.324;2023-02-27T08:13:15;21.48;;;4.55;;
21235;SDS011;10775;42.678;26.324;2023-02-27T08:15:41;15.77;;;4.63;;
21235;SDS011;10775;42.678;26.324;2023-02-27T08:18:06;17.00;;;4.00;;
21235;SDS011;10775;42.678;26.324;2023-02-27T08:20:32;20.92;;;4.20;;
21235;SDS011;10775;42.678;26.324;2023-02-27T08:22:58;19.00;;;4.55;;
21235;SDS011;10775;42.678;26.324;2023-02-27T08:25:23;14.48;;;3.75;;
21235;SDS011;10775;42.678;26.324;2023-02-27T08:27:49;15.23;;;4.25;;
21235;SDS011;10775;42.678;26.324;2023-02-27T08:30:15;15.07;;;6.07;;
21235;SDS011;10775;42.678;26.324;2023-02-27T08:32:43;18.27;;;4.70;;
21235;SDS011;10775;42.678;26.324;2023-02-27T08:35:09;15.93;;;4.78;;
21235;SDS011;10775;42.678;26.324;2023-02-27T08:37:36;18.17;;;5.28;;
21235;SDS011;10775;42.678;26.324;2023-02-27T08:40:02;24.02;;;6.05;;
21235;SDS011;10775;42.678;26.324;2023-02-27T08:42:30;19.45;;;5.22;;
21235;SDS011;10775;42.678;26.324;2023-02-27T08:44:56;13.40;;;3.50;;
21235;SDS011;10775;42.678;26.324;2023-02-27T08:47:21;14.15;;;4.25;;
21235;SDS011;10775;42.678;26.324;2023-02-27T08:49:47;14.60;;;4.30;;
21235;SDS011;10775;42.678;26.324;2023-02-27T08:52:12;13.63;;;4.25;;
21235;SDS011;10775;42.678;26.324;2023-02-27T08:54:38;18.83;;;3.95;;
21235;SDS011;10775;42.678;26.324;2023-02-27T08:57:03;23.90;;;5.90;;
21235;SDS011;10775;42.678;26.324;2023-02-27T08:59:29;13.18;;;4.40;;
21235;SDS011;10775;42.678;26.324;2023-02-27T09:01:55;15.93;;;4.18;;
21235;SDS011;10775;42.678;26.324;2023-02-27T09:04:20;22.40;;;5.93;;
21235;SDS011;10775;42.678;26.324;2023-02-27T09:06:46;28.23;;;9.38;;
21235;SDS011;10775;42.678;26.324;2023-02-27T09:09:12;16.27;;;4.03;;
21235;SDS011;10775;42.678;26.324;2023-02-27T09:11:38;18.60;;;4.80;;
21235;SDS011;10775;42.678;26.324;2023-02-27T09:14:03;39.53;;;10.07;;
21235;SDS011;10775;42.678;26.324;2023-02-27T09:16:29;20.77;;;4.47;;
21235;SDS011;10775;42.678;26.324;2023-02-27T09:18:55;17.13;;;3.95;;
21235;SDS011;10775;42.678;26.324;2023-02-27T09:21:20;13.85;;;4.25;;
21235;SDS011;10775;42.678;26.324;2023-02-27T09:23:48;11.73;;;3.85;;
21235;SDS011;10775;42.678;26.324;2023-02-27T09:26:14;19.08;;;5.82;;
21235;SDS011;10775;42.678;26.324;2023-02-27T09:28:41;16.38;;;4.50;;
21235;SDS011;10775;42.678;26.324;2023-02-27T09:31:06;15.25;;;4.38;;
21235;SDS011;10775;42.678;26.324;2023-02-27T09:33:33;18.58;;;4.15;;
21235;SDS011;10775;42.678;26.324;2023-02-27T09:36:01;18.00;;;5.00;;
21235;SDS011;10775;42.678;26.324;2023-02-27T09:38:27;12.02;;;3.15;;
21235;SDS011;10775;42.678;26.324;2023-02-27T09:40:54;15.75;;;5.10;;
21235;SDS011;10775;42.678;26.324;2023-02-27T09:43:22;8.38;;;3.25;;
21235;SDS011;10775;42.678;26.324;2023-02-27T09:45:55;17.33;;;4.88;;
21235;SDS011;10775;42.678;26.324;2023-02-27T09:48:29;24.65;;;9.13;;
21235;SDS011;10775;42.678;26.324;2023-02-27T09:51:00;9.52;;;2.95;;
21235;SDS011;10775;42.678;26.324;2023-02-27T10:07:59;8.25;;;2.25;;
21235;SDS011;10775;42.678;26.324;2023-02-27T10:10:37;12.07;;;1.77;;
21235;SDS011;10775;42.678;26.324;2023-02-27T10:16:02;12.60;;;3.13;;
21235;SDS011;10775;42.678;26.324;2023-02-27T10:18:33;6.03;;;2.30;;
21235;SDS011;10775;42.678;26.324;2023-02-27T10:21:12;6.30;;;1.88;;
21235;SDS011;10775;42.678;26.324;2023-02-27T10:23:53;7.88;;;2.30;;
21235;SDS011;10775;42.678;26.324;2023-02-27T10:26:24;10.38;;;2.85;;
21235;SDS011;10775;42.678;26.324;2023-02-27T10:28:54;12.57;;;3.25;;
21235;SDS011;10775;42.678;26.324;2023-02-27T10:31:22;10.20;;;3.55;;
21235;SDS011;10775;42.678;26.324;2023-02-27T10:33:51;16.65;;;3.55;;
21235;SDS011;10775;42.678;26.324;2023-02-27T10:36:18;9.30;;;3.05;;
21235;SDS011;10775;42.678;26.324;2023-02-27T10:38:46;18.05;;;2.60;;
21235;SDS011;10775;42.678;26.324;2023-02-27T10:41:16;8.40;;;2.72;;
21235;SDS011;10775;42.678;26.324;2023-02-27T10:43:43;16.30;;;3.78;;
21235;SDS011;10775;42.678;26.324;2023-02-27T10:46:18;12.85;;;2.92;;
21235;SDS011;10775;42.678;26.324;2023-02-27T10:48:49;11.77;;;3.10;;
21235;SDS011;10775;42.678;26.324;2023-02-27T10:54:40;15.40;;;2.90;;
21235;SDS011;10775;42.678;26.324;2023-02-27T10:56:44;14.20;;;3.08;;
21235;SDS011;10775;42.678;26.324;2023-02-27T10:59:17;17.17;;;3.35;;
21235;SDS011;10775;42.678;26.324;2023-02-27T11:01:54;17.52;;;2.58;;
21235;SDS011;10775;42.678;26.324;2023-02-27T11:04:39;8.02;;;2.00;;
21235;SDS011;10775;42.678;26.324;2023-02-27T11:07:11;17.08;;;3.30;;
21235;SDS011;10775;42.678;26.324;2023-02-27T11:09:39;12.27;;;2.70;;
21235;SDS011;10775;42.678;26.324;2023-02-27T11:12:09;10.63;;;2.60;;
21235;SDS011;10775;42.678;26.324;2023-02-27T11:14:51;14.02;;;2.90;;
21235;SDS011;10775;42.678;26.324;2023-02-27T11:17:24;12.07;;;3.08;;
21235;SDS011;10775;42.678;26.324;2023-02-27T11:19:54;17.50;;;3.38;;
21235;SDS011;10775;42.678;26.324;2023-02-27T11:22:21;13.00;;;2.28;;
21235;SDS011;10775;42.678;26.324;2023-02-27T11:24:49;19.85;;;4.55;;
21235;SDS011;10775;42.678;26.324;2023-02-27T11:27:27;12.18;;;3.33;;
21235;SDS011;10775;42.678;26.324;2023-02-27T11:29:58;16.98;;;2.40;;
21235;SDS011;10775;42.678;26.324;2023-02-27T11:32:30;10.43;;;2.30;;
21235;SDS011;10775;42.678;26.324;2023-02-27T11:35:20;12.13;;;2.95;;
21235;SDS011;10775;42.678;26.324;2023-02-27T11:37:50;12.80;;;3.20;;
21235;SDS011;10775;42.678;26.324;2023-02-27T11:40:18;23.33;;;3.80;;
21235;SDS011;10775;42.678;26.324;2023-02-27T11:42:56;17.30;;;6.07;;
21235;SDS011;10775;42.678;26.324;2023-02-27T11:45:33;24.42;;;4.97;;
21235;SDS011;10775;42.678;26.324;2023-02-27T11:48:13;15.18;;;2.97;;
21235;SDS011;10775;42.678;26.324;2023-02-27T11:56:13;16.83;;;3.65;;
21235;SDS011;10775;42.678;26.324;2023-02-27T12:01:22;18.02;;;3.47;;
21235;SDS011;10775;42.678;26.324;2023-02-27T12:03:56;14.88;;;4.00;;
21235;SDS011;10775;42.678;26.324;2023-02-27T12:11:58;16.55;;;3.95;;
21235;SDS011;10775;42.678;26.324;2023-02-27T12:14:31;18.98;;;3.85;;
21235;SDS011;10775;42.678;26.324;2023-02-27T12:19:59;12.35;;;3.60;;
21235;SDS011;10775;42.678;26.324;2023-02-27T12:22:35;19.90;;;3.75;;
21235;SDS011;10775;42.678;26.324;2023-02-27T12:27:53;17.75;;;3.88;;
21235;SDS011;10775;42.678;26.324;2023-02-27T12:30:26;17.77;;;2.97;;
21235;SDS011;10775;42.678;26.324;2023-02-27T12:33:00;16.40;;;3.05;;
21235;SDS011;10775;42.678;26.324;2023-02-27T12:35:34;15.05;;;2.97;;
21235;SDS011;10775;42.678;26.324;2023-02-27T12:37:59;18.95;;;4.07;;
21235;SDS011;10775;42.678;26.324;2023-02-27T12:40:29;20.85;;;3.38;;
21235;SDS011;10775;42.678;26.324;2023-02-27T12:43:11;14.50;;;3.05;;
21235;SDS011;10775;42.678;26.324;2023-02-27T12:51:27;19.50;;;5.25;;
21235;SDS011;10775;42.678;26.324;2023-02-27T12:54:25;13.13;;;4.45;;
21235;SDS011;10775;42.678;26.324;2023-02-27T12:59:46;17.50;;;3.00;;
21235;SDS011;10775;42.678;26.324;2023-02-27T13:14:04;17.30;;;4.15;;
21235;SDS011;10775;42.678;26.324;2023-02-27T13:16:42;11.80;;;2.25;;
21235;SDS011;10775;42.678;26.324;2023-02-27T13:24:30;15.20;;;3.60;;
21235;SDS011;10775;42.678;26.324;2023-02-27T13:29:52;12.48;;;3.10;;
21235;SDS011;10775;42.678;26.324;2023-02-27T13:32:24;14.50;;;3.78;;
21235;SDS011;10775;42.678;26.324;2023-02-27T13:34:57;20.73;;;4.75;;
21235;SDS011;10775;42.678;26.324;2023-02-27T13:37:58;10.63;;;3.10;;
21235;SDS011;10775;42.678;26.324;2023-02-27T13:40:37;24.60;;;5.65;;
21235;SDS011;10775;42.678;26.324;2023-02-27T13:43:10;15.13;;;3.13;;
21235;SDS011;10775;42.678;26.324;2023-02-27T13:50:59;14.20;;;2.60;;
21235;SDS011;10775;42.678;26.324;2023-02-27T13:53:25;17.48;;;4.13;;
21235;SDS011;10775;42.678;26.324;2023-02-27T13:55:52;25.13;;;4.35;;
21235;SDS011;10775;42.678;26.324;2023-02-27T13:58:22;23.98;;;5.47;;
21235;SDS011;10775;42.678;26.324;2023-02-27T14:00:56;16.42;;;3.60;;
21235;SDS011;10775;42.678;26.324;2023-02-27T14:03:25;19.52;;;4.82;;
21235;SDS011;10775;42.678;26.324;2023-02-27T14:05:55;11.80;;;3.22;;
21235;SDS011;10775;42.678;26.324;2023-02-27T14:08:23;27.70;;;5.97;;
21235;SDS011;10775;42.678;26.324;2023-02-27T14:19:02;30.63;;;12.55;;
21235;SDS011;10775;42.678;26.324;2023-02-27T14:21:53;25.75;;;7.32;;
21235;SDS011;10775;42.678;26.324;2023-02-27T14:27:21;25.60;;;7.43;;
21235;SDS011;10775;42.678;26.324;2023-02-27T14:29:50;20.45;;;6.43;;
21235;SDS011;10775;42.678;26.324;2023-02-27T14:32:21;17.95;;;4.65;;
21235;SDS011;10775;42.678;26.324;2023-02-27T14:35:05;19.23;;;4.75;;
21235;SDS011;10775;42.678;26.324;2023-02-27T14:37:31;24.25;;;6.95;;
21235;SDS011;10775;42.678;26.324;2023-02-27T14:39:59;17.75;;;5.85;;
21235;SDS011;10775;42.678;26.324;2023-02-27T14:45:11;13.63;;;4.50;;
21235;SDS011;10775;42.678;26.324;2023-02-27T14:47:40;19.33;;;5.95;;
21235;SDS011;10775;42.678;26.324;2023-02-27T14:50:19;19.15;;;5.10;;
21235;SDS011;10775;42.678;26.324;2023-02-27T14:52:45;25.92;;;8.60;;
21235;SDS011;10775;42.678;26.324;2023-02-27T14:57:54;22.13;;;8.63;;
21235;SDS011;10775;42.678;26.324;2023-02-27T15:08:13;43.55;;;15.50;;
21235;SDS011;10775;42.678;26.324;2023-02-27T15:10:53;25.50;;;9.93;;
21235;SDS011;10775;42.678;26.324;2023-02-27T15:13:37;18.83;;;8.13;;
21235;SDS011;10775;42.678;26.324;2023-02-27T15:18:51;20.45;;;7.05;;
21235;SDS011;10775;42.678;26.324;2023-02-27T15:21:19;21.40;;;8.43;;
21235;SDS011;10775;42.678;26.324;2023-02-27T15:24:00;26.40;;;8.73;;
21235;SDS011;10775;42.678;26.324;2023-02-27T15:26:28;20.48;;;7.00;;
21235;SDS011;10775;42.678;26.324;2023-02-27T15:28:58;18.10;;;6.15;;
21235;SDS011;10775;42.678;26.324;2023-02-27T15:31:24;17.48;;;4.88;;
21235;SDS011;10775;42.678;26.324;2023-02-27T15:33:53;15.30;;;4.32;;
21235;SDS011;10775;42.678;26.324;2023-02-27T15:36:20;12.40;;;4.15;;
21235;SDS011;10775;42.678;26.324;2023-02-27T15:39:02;18.87;;;4.80;;
21235;SDS011;10775;42.678;26.324;2023-02-27T15:41:39;14.07;;;4.28;;
21235;SDS011;10775;42.678;26.324;2023-02-27T15:44:05;20.00;;;5.50;;
21235;SDS011;10775;42.678;26.324;2023-02-27T15:46:31;17.10;;;4.63;;
21235;SDS011;10775;42.678;26.324;2023-02-27T15:48:57;15.35;;;4.50;;
21235;SDS011;10775;42.678;26.324;2023-02-27T15:51:24;22.88;;;5.22;;
21235;SDS011;10775;42.678;26.324;2023-02-27T15:53:52;17.02;;;6.38;;
21235;SDS011;10775;42.678;26.324;2023-02-27T15:56:29;14.70;;;4.27;;
21235;SDS011;10775;42.678;26.324;2023-02-27T15:58:57;11.75;;;3.97;;
21235;SDS011;10775;42.678;26.324;2023-02-27T16:01:25;18.73;;;4.95;;
21235;SDS011;10775;42.678;26.324;2023-02-27T16:03:54;12.05;;;4.03;;
21235;SDS011;10775;42.678;26.324;2023-02-27T16:06:29;13.93;;;4.40;;
21235;SDS011;10775;42.678;26.324;2023-02-27T16:11:42;25.88;;;5.97;;
21235;SDS011;10775;42.678;26.324;2023-02-27T16:17:25;15.77;;;4.32;;
21235;SDS011;10775;42.678;26.324;2023-02-27T16:19:57;12.73;;;4.07;;
21235;SDS011;10775;42.678;26.324;2023-02-27T16:22:25;13.27;;;5.47;;
21235;SDS011;10775;42.678;26.324;2023-02-27T16:24:51;10.45;;;3.75;;
21235;SDS011;10775;42.678;26.324;2023-02-27T16:27:21;10.60;;;3.95;;
21235;SDS011;10775;42.678;26.324;2023-02-27T16:29:49;8.02;;;3.45;;
21235;SDS011;10775;42.678;26.324;2023-02-27T16:32:21;13.85;;;4.50;;
21235;SDS011;10775;42.678;26.324;2023-02-27T16:34:51;9.95;;;3.78;;
21235;SDS011;10775;42.678;26.324;2023-02-27T16:37:39;12.30;;;5.63;;
21235;SDS011;10775;42.678;26.324;2023-02-27T16:40:16;10.43;;;4.13;;
21235;SDS011;10775;42.678;26.324;2023-02-27T16:42:44;12.13;;;4.00;;
21235;SDS011;10775;42.678;26.324;2023-02-27T16:45:14;16.50;;;5.07;;
21235;SDS011;10775;42.678;26.324;2023-02-27T16:47:41;10.27;;;3.55;;
21235;SDS011;10775;42.678;26.324;2023-02-27T16:50:27;11.98;;;4.07;;
21235;SDS011;10775;42.678;26.324;2023-02-27T16:53:13;8.32;;;3.83;;
21235;SDS011;10775;42.678;26.324;2023-02-27T16:55:38;15.90;;;5.28;;
21235;SDS011;10775;42.678;26.324;2023-02-27T16:58:05;18.50;;;5.10;;
21235;SDS011;10775;42.678;26.324;2023-02-27T17:00:30;11.95;;;4.00;;
21235;SDS011;10775;42.678;26.324;2023-02-27T17:02:58;12.60;;;4.82;;
21235;SDS011;10775;42.678;26.324;2023-02-27T17:05:23;13.00;;;3.80;;
21235;SDS011;10775;42.678;26.324;2023-02-27T17:07:50;10.93;;;3.83;;
21235;SDS011;10775;42.678;26.324;2023-02-27T17:10:16;10.38;;;4.65;;
21235;SDS011;10775;42.678;26.324;2023-02-27T17:12:44;12.13;;;4.97;;
21235;SDS011;10775;42.678;26.324;2023-02-27T17:15:11;17.98;;;6.57;;
21235;SDS011;10775;42.678;26.324;2023-02-27T17:17:38;12.13;;;5.43;;
21235;SDS011;10775;42.678;26.324;2023-02-27T17:20:04;9.60;;;4.93;;
21235;SDS011;10775;42.678;26.324;2023-02-27T17:22:36;21.35;;;8.05;;
21235;SDS011;10775;42.678;26.324;2023-02-27T17:25:03;13.23;;;6.20;;
21235;SDS011;10775;42.678;26.324;2023-02-27T17:27:29;12.02;;;5.05;;
21235;SDS011;10775;42.678;26.324;2023-02-27T17:29:55;14.20;;;5.70;;
21235;SDS011;10775;42.678;26.324;2023-02-27T17:32:20;11.23;;;3.97;;
21235;SDS011;10775;42.678;26.324;2023-02-27T17:34:46;15.55;;;5.22;;
21235;SDS011;10775;42.678;26.324;2023-02-27T17:37:11;14.70;;;6.10;;
21235;SDS011;10775;42.678;26.324;2023-02-27T17:39:37;8.48;;;4.45;;
21235;SDS011;10775;42.678;26.324;2023-02-27T17:42:03;22.80;;;7.63;;
21235;SDS011;10775;42.678;26.324;2023-02-27T17:44:28;16.13;;;5.80;;
21235;SDS011;10775;42.678;26.324;2023-02-27T17:46:53;10.15;;;3.83;;
21235;SDS011;10775;42.678;26.324;2023-02-27T17:49:19;11.70;;;4.13;;
21235;SDS011;10775;42.678;26.324;2023-02-27T17:51:44;12.27;;;4.47;;
21235;SDS011;10775;42.678;26.324;2023-02-27T17:54:10;19.05;;;5.82;;
21235;SDS011;10775;42.678;26.324;2023-02-27T17:56:36;15.50;;;4.50;;
21235;SDS011;10775;42.678;26.324;2023-02-27T17:59:02;9.82;;;4.60;;